createdAt,value
2023-12-10T00:01:55.381Z,9.14
2023-12-10T00:04:24.008Z,8.96
2023-12-10T00:06:52.106Z,9.11
2023-12-10T00:09:18.990Z,9.12
2023-12-10T00:11:45.637Z,9.05
2023-12-10T00:14:12.314Z,9.04
2023-12-10T00:16:38.968Z,9.15
2023-12-10T00:19:05.969Z,9.09
2023-12-10T00:21:32.763Z,9.19
2023-12-10T00:23:59.498Z,9.13
2023-12-10T00:26:26.173Z,9.01
2023-12-10T00:28:52.839Z,9.05
2023-12-10T00:31:19.520Z,8.95
2023-12-10T00:33:46.275Z,9.13
2023-12-10T00:36:13.291Z,9.01
2023-12-10T00:38:40.080Z,9.09
2023-12-10T00:41:06.973Z,8.92
2023-12-10T00:43:33.666Z,8.96
2023-12-10T00:46:00.364Z,8.98
2023-12-10T00:48:27.200Z,8.94
2023-12-10T00:50:53.924Z,8.95
2023-12-10T00:53:20.580Z,9.22
2023-12-10T00:55:48.071Z,9.21
2023-12-10T00:58:15.386Z,8.99
2023-12-10T01:00:42.792Z,9.09
2023-12-10T01:03:09.675Z,9.08
2023-12-10T01:05:36.609Z,8.89
2023-12-10T01:08:04.448Z,9.05
2023-12-10T01:10:31.468Z,9.01
2023-12-10T01:12:58.619Z,8.88
2023-12-10T01:15:32.908Z,9.06
2023-12-10T01:18:03.690Z,9.04
2023-12-10T01:20:32.200Z,9.05
2023-12-10T01:22:59.525Z,9.06
2023-12-10T01:25:26.932Z,9.14
2023-12-10T01:27:54.734Z,9.22
2023-12-10T01:30:24.789Z,9.13
2023-12-10T01:32:58.769Z,9.07
2023-12-10T01:35:26.973Z,9.16
2023-12-10T01:37:54.160Z,9.30
2023-12-10T01:40:20.878Z,9.09
2023-12-10T01:42:50.407Z,9.07
2023-12-10T01:45:19.720Z,9.23
2023-12-10T01:47:49.045Z,9.14
2023-12-10T01:50:19.591Z,9.22
2023-12-10T01:52:50.452Z,9.19
2023-12-10T01:55:17.830Z,9.22
2023-12-10T01:57:44.791Z,9.19
2023-12-10T02:00:12.370Z,9.10
2023-12-10T02:02:40.717Z,9.22
2023-12-10T02:05:10.680Z,9.14
2023-12-10T02:07:38.393Z,9.21
2023-12-10T02:10:07.301Z,9.26
2023-12-10T02:12:37.857Z,9.23
2023-12-10T02:15:21.124Z,9.20
2023-12-10T02:17:49.450Z,9.37
2023-12-10T02:20:17.822Z,9.30
2023-12-10T02:22:52.574Z,9.19
2023-12-10T02:25:31.742Z,9.33
2023-12-10T02:27:59.041Z,9.19
2023-12-10T02:30:26.818Z,9.27
2023-12-10T02:32:53.661Z,9.20
2023-12-10T02:35:20.388Z,9.38
2023-12-10T02:37:47.246Z,9.28
2023-12-10T02:40:14.530Z,9.18
2023-12-10T02:42:41.541Z,9.15
2023-12-10T02:45:08.436Z,9.13
2023-12-10T02:47:36.664Z,9.10
2023-12-10T02:50:03.768Z,9.22
2023-12-10T02:52:30.808Z,9.02
2023-12-10T02:54:57.580Z,9.10
2023-12-10T02:57:24.295Z,8.94
2023-12-10T02:59:50.964Z,8.91
2023-12-10T03:02:17.705Z,9.09
2023-12-10T03:04:44.416Z,9.11
2023-12-10T03:07:11.130Z,9.01
2023-12-10T03:09:37.930Z,9.11
2023-12-10T03:12:05.336Z,8.95
2023-12-10T03:14:32.069Z,8.96
2023-12-10T03:16:58.806Z,8.87
2023-12-10T03:19:25.496Z,9.07
2023-12-10T03:21:52.285Z,9.02
2023-12-10T03:24:19.022Z,8.91
2023-12-10T03:26:45.770Z,8.96
2023-12-10T03:29:12.510Z,8.95
2023-12-10T03:31:39.178Z,8.94
2023-12-10T03:34:05.982Z,8.83
2023-12-10T03:36:32.776Z,8.97
2023-12-10T03:38:59.541Z,8.90
2023-12-10T03:41:26.308Z,8.82
2023-12-10T03:43:52.934Z,8.94
2023-12-10T03:46:19.606Z,9.04
2023-12-10T03:48:46.551Z,9.02
2023-12-10T03:51:13.401Z,8.99
2023-12-10T03:53:40.106Z,8.83
2023-12-10T03:56:07.260Z,8.70
2023-12-10T03:58:33.972Z,8.68
2023-12-10T04:01:00.772Z,8.62
2023-12-10T04:03:27.883Z,8.70
2023-12-10T04:05:54.628Z,8.62
2023-12-10T04:08:21.301Z,8.53
2023-12-10T04:10:47.977Z,8.45
2023-12-10T04:13:14.638Z,8.28
2023-12-10T04:15:42.514Z,8.36
2023-12-10T04:18:09.338Z,8.14
2023-12-10T04:20:36.055Z,8.16
2023-12-10T04:23:03.117Z,8.06
2023-12-10T04:25:29.962Z,8.12
2023-12-10T04:27:56.700Z,8.14
2023-12-10T04:30:25.376Z,7.99
2023-12-10T04:32:52.150Z,8.06
2023-12-10T04:35:19.193Z,7.99
2023-12-10T04:37:46.126Z,7.93
2023-12-10T04:40:14.277Z,7.98
2023-12-10T04:42:41.009Z,7.94
2023-12-10T04:45:08.870Z,7.88
2023-12-10T04:47:36.735Z,7.86
2023-12-10T04:50:04.247Z,7.90
2023-12-10T04:52:32.038Z,7.75
2023-12-10T04:54:59.770Z,7.81
2023-12-10T04:57:27.133Z,7.87
2023-12-10T04:59:54.236Z,7.68
2023-12-10T05:02:20.930Z,7.89
2023-12-10T05:04:47.666Z,7.76
2023-12-10T05:07:14.386Z,7.86
2023-12-10T05:09:41.602Z,7.73
2023-12-10T05:12:08.606Z,7.73
2023-12-10T05:14:35.348Z,7.71
2023-12-10T05:17:02.007Z,7.71
2023-12-10T05:19:28.775Z,7.73
2023-12-10T05:21:55.705Z,7.78
2023-12-10T05:24:22.609Z,7.77
2023-12-10T05:26:49.297Z,7.76
2023-12-10T05:29:15.964Z,7.84
2023-12-10T05:31:42.629Z,7.82
2023-12-10T05:34:09.855Z,7.88
2023-12-10T05:36:36.594Z,7.77
2023-12-10T05:39:04.390Z,7.77
2023-12-10T05:41:31.082Z,7.70
2023-12-10T05:43:57.770Z,7.72
2023-12-10T05:46:24.566Z,7.58
2023-12-10T05:48:51.368Z,7.59
2023-12-10T05:51:18.349Z,7.62
2023-12-10T05:53:45.085Z,7.72
2023-12-10T05:56:11.773Z,7.63
2023-12-10T05:58:38.462Z,7.70
2023-12-10T06:01:05.587Z,7.61
2023-12-10T06:03:32.371Z,7.57
2023-12-10T06:05:59.138Z,7.66
2023-12-10T06:08:25.857Z,7.61
2023-12-10T06:10:52.591Z,7.56
2023-12-10T06:13:19.368Z,7.55
2023-12-10T06:15:46.666Z,7.68
2023-12-10T06:18:13.795Z,7.64
2023-12-10T06:20:40.566Z,7.71
2023-12-10T06:23:07.296Z,7.59
2023-12-10T06:25:33.984Z,7.55
2023-12-10T06:28:00.722Z,7.54
2023-12-10T06:30:27.457Z,7.59
2023-12-10T06:32:56.724Z,7.59
2023-12-10T06:35:23.657Z,7.55
2023-12-10T06:37:50.811Z,7.54
2023-12-10T06:40:17.792Z,7.66
2023-12-10T06:42:45.978Z,7.60
2023-12-10T06:45:14.522Z,7.68
2023-12-10T06:47:42.176Z,7.61
2023-12-10T06:50:10.834Z,7.66
2023-12-10T06:52:37.933Z,7.56
2023-12-10T06:55:05.059Z,7.64
2023-12-10T06:57:31.854Z,7.57
2023-12-10T06:59:58.488Z,7.65
2023-12-10T07:02:25.108Z,7.66
2023-12-10T07:04:51.841Z,7.68
2023-12-10T07:07:18.593Z,7.67
2023-12-10T07:09:45.343Z,7.70
2023-12-10T07:12:12.071Z,7.74
2023-12-10T07:14:38.774Z,7.65
2023-12-10T07:17:05.555Z,7.78
2023-12-10T07:19:32.386Z,7.79
2023-12-10T07:21:59.456Z,7.65
2023-12-10T07:24:26.224Z,7.77
2023-12-10T07:26:53.329Z,7.68
2023-12-10T07:29:20.161Z,7.70
2023-12-10T07:31:46.818Z,7.69
2023-12-10T07:34:13.637Z,7.63
2023-12-10T07:36:41.304Z,7.66
2023-12-10T07:39:10.584Z,7.86
2023-12-10T07:41:37.337Z,7.78
2023-12-10T07:44:04.347Z,7.91
2023-12-10T07:46:31.153Z,7.77
2023-12-10T07:48:57.911Z,7.64
2023-12-10T07:51:24.755Z,7.74
2023-12-10T07:53:51.463Z,7.84
2023-12-10T07:56:18.188Z,7.69
2023-12-10T07:58:44.885Z,7.74
2023-12-10T08:01:11.902Z,7.81
2023-12-10T08:03:38.947Z,7.78
2023-12-10T08:06:05.879Z,7.73
2023-12-10T08:08:32.727Z,7.84
2023-12-10T08:10:59.509Z,7.76
2023-12-10T08:13:26.262Z,7.76
2023-12-10T08:15:53.168Z,7.71
2023-12-10T08:18:20.018Z,7.83
2023-12-10T08:20:46.952Z,7.72
2023-12-10T08:23:13.678Z,7.70
2023-12-10T08:25:40.355Z,7.94
2023-12-10T08:28:07.208Z,7.77
2023-12-10T08:30:34.117Z,7.84
2023-12-10T08:33:00.931Z,7.82
2023-12-10T08:35:27.721Z,7.81
2023-12-10T08:37:54.631Z,7.99
2023-12-10T08:40:21.509Z,8.06
2023-12-10T08:42:48.363Z,8.07
2023-12-10T08:45:15.431Z,8.06
2023-12-10T08:47:42.211Z,7.99
2023-12-10T08:50:09.912Z,8.04
2023-12-10T08:52:36.747Z,8.08
2023-12-10T08:55:03.778Z,8.11
2023-12-10T08:57:30.578Z,8.12
2023-12-10T09:00:01.931Z,8.15
2023-12-10T09:02:30.069Z,8.22
2023-12-10T09:04:57.341Z,8.26
2023-12-10T09:07:23.971Z,8.26
2023-12-10T09:09:56.419Z,8.37
2023-12-10T09:12:29.720Z,8.29
2023-12-10T09:14:56.818Z,8.27
2023-12-10T09:17:23.552Z,8.44
2023-12-10T09:19:50.528Z,8.47
2023-12-10T09:22:17.452Z,8.41
2023-12-10T09:24:44.316Z,8.44
2023-12-10T09:27:11.375Z,8.44
2023-12-10T09:29:42.392Z,8.31
2023-12-10T09:32:09.963Z,8.34
2023-12-10T09:34:37.253Z,8.33
2023-12-10T09:37:05.661Z,8.47
2023-12-10T09:39:32.685Z,8.33
2023-12-10T09:41:59.447Z,8.56
2023-12-10T09:44:27.290Z,8.33
2023-12-10T09:46:53.926Z,8.39
2023-12-10T09:49:22.665Z,8.40
2023-12-10T09:51:49.520Z,8.42
2023-12-10T09:54:21.835Z,8.51
2023-12-10T09:56:51.342Z,8.58
2023-12-10T09:59:18.300Z,8.49
2023-12-10T10:01:50.436Z,8.47
2023-12-10T10:04:21.213Z,8.50
2023-12-10T10:06:48.256Z,8.49
2023-12-10T10:09:27.814Z,8.54
2023-12-10T10:12:00.011Z,8.60
2023-12-10T10:14:26.776Z,8.61
2023-12-10T10:16:53.541Z,8.66
2023-12-10T10:19:20.671Z,8.61
2023-12-10T10:21:47.990Z,8.76
2023-12-10T10:24:17.015Z,8.65
2023-12-10T10:26:44.913Z,8.66
2023-12-10T10:29:11.644Z,8.51
2023-12-10T10:31:39.055Z,8.75
2023-12-10T10:34:07.890Z,8.56
2023-12-10T10:36:34.784Z,8.58
2023-12-10T10:39:02.272Z,8.64
2023-12-10T10:41:31.876Z,8.49
2023-12-10T10:44:00.159Z,8.71
2023-12-10T10:46:27.429Z,8.56
2023-12-10T10:48:56.232Z,8.49
2023-12-10T10:51:26.172Z,8.74
2023-12-10T10:53:55.900Z,8.69
2023-12-10T10:56:23.324Z,8.48
2023-12-10T10:58:49.973Z,8.70
2023-12-10T11:01:43.511Z,8.64
2023-12-10T11:04:16.759Z,8.49
2023-12-10T11:06:47.905Z,8.44
2023-12-10T11:09:14.977Z,8.52
2023-12-10T11:11:41.810Z,8.47
2023-12-10T11:14:23.496Z,8.60
2023-12-10T11:17:03.658Z,8.67
2023-12-10T11:19:32.450Z,8.67
2023-12-10T11:22:03.355Z,8.73
2023-12-10T11:24:30.592Z,8.61
2023-12-10T11:26:57.312Z,8.67
2023-12-10T11:29:24.026Z,8.63
2023-12-10T11:31:50.763Z,8.60
2023-12-10T11:34:17.504Z,8.71
2023-12-10T11:36:49.572Z,8.67
2023-12-10T11:39:16.882Z,8.68
2023-12-10T11:41:55.626Z,8.69
2023-12-10T11:44:27.150Z,8.83
2023-12-10T11:46:57.041Z,8.81
2023-12-10T11:49:25.210Z,8.94
2023-12-10T11:51:52.511Z,8.83
2023-12-10T11:54:19.948Z,8.99
2023-12-10T11:56:47.211Z,8.89
2023-12-10T11:59:14.002Z,8.95
2023-12-10T12:01:41.172Z,8.81
2023-12-10T12:04:08.403Z,8.94
2023-12-10T12:06:43.293Z,8.86
2023-12-10T12:09:21.569Z,8.83
2023-12-10T12:11:52.297Z,8.90
2023-12-10T12:14:20.607Z,8.95
2023-12-10T12:16:47.814Z,8.93
2023-12-10T12:19:30.698Z,8.89
2023-12-10T12:22:01.089Z,8.97
2023-12-10T12:24:28.421Z,9.08
2023-12-10T12:26:55.847Z,9.00
2023-12-10T12:29:22.620Z,8.88
2023-12-10T12:32:05.197Z,8.84
2023-12-10T12:34:36.510Z,9.01
2023-12-10T12:37:04.173Z,8.84
2023-12-10T12:39:31.099Z,8.88
2023-12-10T12:41:57.910Z,8.86
2023-12-10T12:44:24.669Z,8.95
2023-12-10T12:46:53.892Z,9.05
2023-12-10T12:49:21.151Z,9.02
2023-12-10T12:51:48.041Z,8.96
2023-12-10T12:54:15.889Z,8.94
2023-12-10T12:56:45.660Z,9.04
2023-12-10T12:59:16.437Z,9.02
2023-12-10T13:01:43.802Z,9.03
2023-12-10T13:04:11.117Z,9.03
2023-12-10T13:06:38.046Z,9.15
2023-12-10T13:09:08.310Z,9.23
2023-12-10T13:11:40.957Z,9.41
2023-12-10T13:14:07.602Z,9.48
2023-12-10T13:16:34.390Z,9.61
2023-12-10T13:19:02.012Z,9.53
2023-12-10T13:21:28.779Z,9.74
2023-12-10T13:23:55.533Z,9.49
2023-12-10T13:26:22.182Z,9.54
2023-12-10T13:28:49.640Z,9.44
2023-12-10T13:31:16.380Z,9.66
2023-12-10T13:33:43.549Z,9.37
2023-12-10T13:36:10.493Z,9.30
2023-12-10T13:38:37.319Z,9.38
2023-12-10T13:41:04.318Z,9.25
2023-12-10T13:43:30.978Z,9.25
2023-12-10T13:45:57.723Z,9.26
2023-12-10T13:48:24.733Z,9.02
2023-12-10T13:50:51.650Z,9.02
2023-12-10T13:53:19.027Z,9.08
2023-12-10T13:55:45.698Z,9.10
2023-12-10T13:58:12.513Z,9.01
2023-12-10T14:00:39.353Z,8.98
2023-12-10T14:03:06.196Z,9.16
2023-12-10T14:05:33.067Z,9.14
2023-12-10T14:08:00.924Z,9.03
2023-12-10T14:10:27.817Z,9.21
2023-12-10T14:12:54.551Z,9.07
2023-12-10T14:15:21.340Z,9.20
2023-12-10T14:17:48.041Z,9.24
2023-12-10T14:20:16.657Z,9.07
2023-12-10T14:22:44.224Z,9.08
2023-12-10T14:25:14.913Z,9.32
2023-12-10T14:27:42.851Z,9.28
2023-12-10T14:30:09.797Z,9.25
2023-12-10T14:32:36.602Z,9.10
2023-12-10T14:35:03.411Z,9.10
2023-12-10T14:37:30.422Z,9.24
2023-12-10T14:39:57.978Z,9.12
2023-12-10T14:42:25.010Z,9.16
2023-12-10T14:44:51.924Z,9.14
2023-12-10T14:47:18.601Z,9.01
2023-12-10T14:49:45.414Z,9.09
2023-12-10T14:52:12.199Z,9.05
2023-12-10T14:54:39.062Z,9.14
2023-12-10T14:57:06.739Z,8.99
2023-12-10T14:59:33.438Z,9.06
2023-12-10T15:02:08.919Z,9.08
2023-12-10T15:04:39.355Z,8.91
2023-12-10T15:07:06.232Z,8.96
2023-12-10T15:09:33.052Z,9.08
2023-12-10T15:11:59.787Z,8.99
2023-12-10T15:14:26.570Z,8.94
2023-12-10T15:16:54.517Z,8.95
2023-12-10T15:19:25.454Z,9.20
2023-12-10T15:21:52.634Z,8.87
2023-12-10T15:24:19.850Z,9.16
2023-12-10T15:26:47.678Z,9.09
2023-12-10T15:29:14.575Z,9.21
2023-12-10T15:31:41.337Z,9.19
2023-12-10T15:34:08.208Z,9.13
2023-12-10T15:36:35.146Z,9.10
2023-12-10T15:39:08.794Z,9.35
2023-12-10T15:42:09.229Z,9.49
2023-12-10T15:44:37.417Z,9.31
2023-12-10T15:47:04.354Z,9.25
2023-12-10T15:49:32.157Z,9.35
2023-12-10T15:52:01.299Z,9.50
2023-12-10T15:54:32.334Z,9.17
2023-12-10T15:56:59.714Z,9.41
2023-12-10T15:59:26.414Z,9.38
2023-12-10T16:01:54.012Z,9.36
2023-12-10T16:04:20.941Z,9.33
2023-12-10T16:06:47.796Z,9.38
2023-12-10T16:09:14.533Z,9.23
2023-12-10T16:11:41.222Z,9.46
2023-12-10T16:14:08.182Z,9.53
2023-12-10T16:16:35.006Z,9.69
2023-12-10T16:19:01.819Z,9.61
2023-12-10T16:21:28.609Z,9.63
2023-12-10T16:23:55.293Z,9.59
2023-12-10T16:26:23.515Z,9.72
2023-12-10T16:28:51.653Z,9.57
2023-12-10T16:31:18.468Z,9.60
2023-12-10T16:33:46.437Z,9.69
2023-12-10T16:36:14.493Z,9.74
2023-12-10T16:38:41.110Z,9.66
2023-12-10T16:41:08.920Z,9.70
2023-12-10T16:43:35.565Z,9.75
2023-12-10T16:46:02.330Z,9.85
2023-12-10T16:48:29.484Z,9.84
2023-12-10T16:50:57.116Z,9.69
2023-12-10T16:53:24.609Z,9.84
2023-12-10T16:55:53.605Z,9.84
2023-12-10T16:58:20.237Z,9.86
2023-12-10T17:00:48.338Z,9.84
2023-12-10T17:03:15.697Z,9.76
2023-12-10T17:05:42.473Z,9.77
2023-12-10T17:08:09.323Z,9.78
2023-12-10T17:10:37.082Z,9.70
2023-12-10T17:13:04.085Z,9.69
2023-12-10T17:15:31.017Z,9.65
2023-12-10T17:17:58.988Z,9.78
2023-12-10T17:20:25.718Z,9.86
2023-12-10T17:22:52.786Z,9.76
2023-12-10T17:25:19.415Z,9.74
2023-12-10T17:27:46.125Z,9.66
2023-12-10T17:30:16.383Z,9.70
2023-12-10T17:32:43.294Z,9.66
2023-12-10T17:35:12.957Z,9.63
2023-12-10T17:37:39.835Z,9.75
2023-12-10T17:40:07.500Z,9.75
2023-12-10T17:42:37.099Z,9.84
2023-12-10T17:45:03.988Z,9.63
2023-12-10T17:47:30.936Z,9.74
2023-12-10T17:49:57.882Z,9.80
2023-12-10T17:52:24.639Z,9.75
2023-12-10T17:54:52.179Z,9.63
2023-12-10T17:57:19.056Z,9.53
2023-12-10T17:59:45.752Z,9.50
2023-12-10T18:02:12.526Z,9.67
2023-12-10T18:04:39.241Z,9.62
2023-12-10T18:07:06.434Z,9.70
2023-12-10T18:09:33.249Z,9.61
2023-12-10T18:12:00.201Z,9.61
2023-12-10T18:14:27.098Z,9.62
2023-12-10T18:16:53.974Z,9.62
2023-12-10T18:19:21.128Z,9.64
2023-12-10T18:21:47.921Z,9.64
2023-12-10T18:24:14.888Z,9.59
2023-12-10T18:26:41.517Z,9.77
2023-12-10T18:29:08.229Z,9.62
2023-12-10T18:31:35.116Z,9.78
2023-12-10T18:34:01.911Z,9.64
2023-12-10T18:36:31.079Z,9.68
2023-12-10T18:38:58.143Z,9.49
2023-12-10T18:41:25.599Z,9.56
2023-12-10T18:43:52.528Z,9.53
2023-12-10T18:46:19.151Z,9.21
2023-12-10T18:48:47.073Z,9.58
2023-12-10T18:51:14.201Z,9.09
2023-12-10T18:53:41.297Z,9.20
2023-12-10T18:56:09.503Z,9.17
2023-12-10T18:58:39.625Z,9.19
2023-12-10T19:01:06.824Z,9.17
2023-12-10T19:03:33.769Z,9.08
2023-12-10T19:06:01.458Z,9.03
2023-12-10T19:08:28.131Z,8.89
2023-12-10T19:10:55.862Z,8.71
2023-12-10T19:13:22.742Z,8.89
2023-12-10T19:15:50.444Z,8.75
2023-12-10T19:18:17.700Z,8.76
2023-12-10T19:20:44.465Z,8.68
2023-12-10T19:23:11.310Z,8.80
2023-12-10T19:25:38.037Z,8.79
2023-12-10T19:28:04.802Z,8.76
2023-12-10T19:30:31.615Z,8.54
2023-12-10T19:33:00.090Z,8.63
2023-12-10T19:35:30.351Z,8.38
2023-12-10T19:37:57.888Z,8.49
2023-12-10T19:40:27.386Z,8.49
2023-12-10T19:42:54.106Z,8.50
2023-12-10T19:45:20.914Z,8.36
2023-12-10T19:47:52.081Z,8.32
2023-12-10T19:50:20.080Z,8.39
2023-12-10T19:52:47.750Z,8.37
2023-12-10T19:55:16.095Z,8.32
2023-12-10T19:57:42.843Z,8.51
2023-12-10T20:00:09.998Z,8.26
2023-12-10T20:02:39.675Z,8.32
2023-12-10T20:05:12.706Z,8.30
2023-12-10T20:07:39.491Z,8.20
2023-12-10T20:10:06.488Z,8.42
2023-12-10T20:12:33.385Z,8.35
2023-12-10T20:15:00.142Z,8.31
2023-12-10T20:17:28.953Z,8.15
2023-12-10T20:19:55.995Z,8.22
2023-12-10T20:22:22.903Z,8.13
2023-12-10T20:24:56.500Z,8.44
2023-12-10T20:27:29.460Z,8.40
2023-12-10T20:29:56.624Z,8.39
2023-12-10T20:32:23.539Z,8.29
2023-12-10T20:34:50.445Z,8.39
2023-12-10T20:37:17.274Z,8.53
2023-12-10T20:39:44.149Z,8.47
2023-12-10T20:42:10.941Z,8.52
2023-12-10T20:44:37.612Z,8.71
2023-12-10T20:47:04.392Z,8.82
2023-12-10T20:49:31.225Z,8.74
2023-12-10T20:51:57.978Z,8.70
2023-12-10T20:54:24.804Z,8.87
2023-12-10T20:56:51.563Z,8.80
2023-12-10T20:59:18.225Z,9.02
2023-12-10T21:01:45.031Z,8.99
2023-12-10T21:04:11.792Z,8.97
2023-12-10T21:06:38.721Z,9.06
2023-12-10T21:09:06.538Z,9.17
2023-12-10T21:11:33.255Z,9.17
2023-12-10T21:14:04.661Z,9.22
2023-12-10T21:16:31.374Z,9.22
2023-12-10T21:18:58.138Z,9.28
2023-12-10T21:21:24.996Z,9.49
2023-12-10T21:23:51.774Z,9.47
2023-12-10T21:26:18.417Z,9.42
2023-12-10T21:28:45.104Z,9.44
2023-12-10T21:31:11.829Z,9.51
2023-12-10T21:33:38.585Z,9.50
2023-12-10T21:36:05.801Z,9.59
2023-12-10T21:38:32.533Z,9.56
2023-12-10T21:40:59.377Z,9.67
2023-12-10T21:43:26.092Z,9.67
2023-12-10T21:45:52.851Z,9.74
2023-12-10T21:48:19.882Z,9.77
2023-12-10T21:50:48.305Z,9.87
2023-12-10T21:53:15.272Z,9.87
2023-12-10T21:55:42.104Z,9.91
2023-12-10T21:58:08.909Z,9.90
2023-12-10T22:00:36.062Z,10.03
2023-12-10T22:03:04.106Z,10.07
2023-12-10T22:05:31.220Z,9.93
2023-12-10T22:07:58.088Z,10.04
2023-12-10T22:10:24.744Z,10.17
2023-12-10T22:12:51.438Z,10.22
2023-12-10T22:15:18.221Z,10.11
2023-12-10T22:17:45.058Z,10.14
2023-12-10T22:20:12.474Z,10.09
2023-12-10T22:22:42.405Z,10.17
2023-12-10T22:25:12.746Z,10.20
2023-12-10T22:27:39.647Z,10.12
2023-12-10T22:30:07.024Z,10.17
2023-12-10T22:32:34.256Z,10.18
2023-12-10T22:35:01.174Z,10.15
2023-12-10T22:37:28.305Z,10.10
2023-12-10T22:39:55.309Z,10.02
2023-12-10T22:42:21.971Z,10.11
2023-12-10T22:44:48.663Z,10.18
2023-12-10T22:47:15.284Z,10.15
2023-12-10T22:49:45.711Z,10.22
2023-12-10T22:52:13.461Z,10.25
2023-12-10T22:54:40.378Z,10.24
2023-12-10T22:57:07.039Z,10.13
2023-12-10T22:59:33.915Z,10.21
2023-12-10T23:02:01.404Z,10.25
2023-12-10T23:04:28.286Z,10.29
2023-12-10T23:06:55.519Z,10.24
2023-12-10T23:09:22.246Z,10.30
2023-12-10T23:11:49.168Z,10.26
2023-12-10T23:14:15.933Z,10.23
2023-12-10T23:16:43.084Z,10.36
2023-12-10T23:19:10.554Z,10.44
2023-12-10T23:21:37.576Z,10.32
2023-12-10T23:24:04.546Z,10.35
2023-12-10T23:26:31.219Z,10.45
2023-12-10T23:28:58.275Z,10.35
2023-12-10T23:31:24.952Z,10.41
2023-12-10T23:33:51.880Z,10.34
2023-12-10T23:36:18.645Z,10.37
2023-12-10T23:38:45.344Z,10.33
2023-12-10T23:41:13.848Z,10.40
2023-12-10T23:43:40.802Z,10.33
2023-12-10T23:46:09.240Z,10.29
2023-12-10T23:48:36.146Z,10.34
2023-12-10T23:51:02.847Z,10.32
2023-12-10T23:53:29.498Z,10.39
2023-12-10T23:55:56.160Z,10.33
2023-12-10T23:58:22.911Z,10.37
